sensor_id;sensor_type;location;lat;lon;timestamp;temperature;humidity
7648;DHT22;3866;48.020;11.720;2022-11-20T00:01:06;4.90;99.90
7648;DHT22;3866;48.020;11.720;2022-11-20T00:03:35;4.90;99.90
7648;DHT22;3866;48.020;11.720;2022-11-20T00:06:03;4.90;99.90
7648;DHT22;3866;48.020;11.720;2022-11-20T00:08:33;4.90;99.90
7648;DHT22;3866;48.020;11.720;2022-11-20T00:11:03;4.90;99.90
7648;DHT22;3866;48.020;11.720;2022-11-20T00:13:34;4.90;99.90
7648;DHT22;3866;48.020;11.720;2022-11-20T00:16:05;4.90;99.90
7648;DHT22;3866;48.020;11.720;2022-11-20T00:18:35;4.90;99.90
7648;DHT22;3866;48.020;11.720;2022-11-20T00:21:04;4.90;99.90
7648;DHT22;3866;48.020;11.720;2022-11-20T00:23:33;4.90;99.90
7648;DHT22;3866;48.020;11.720;2022-11-20T00:26:06;4.90;99.90
7648;DHT22;3866;48.020;11.720;2022-11-20T00:28:36;4.90;99.90
7648;DHT22;3866;48.020;11.720;2022-11-20T00:31:04;4.90;99.90
7648;DHT22;3866;48.020;11.720;2022-11-20T00:33:33;4.90;99.90
7648;DHT22;3866;48.020;11.720;2022-11-20T00:36:02;4.90;99.90
7648;DHT22;3866;48.020;11.720;2022-11-20T00:38:30;4.80;99.90
7648;DHT22;3866;48.020;11.720;2022-11-20T00:41:00;4.90;99.90
7648;DHT22;3866;48.020;11.720;2022-11-20T00:43:28;4.90;99.90
7648;DHT22;3866;48.020;11.720;2022-11-20T00:45:59;4.90;99.90
7648;DHT22;3866;48.020;11.720;2022-11-20T00:48:26;4.90;99.90
7648;DHT22;3866;48.020;11.720;2022-11-20T00:50:55;4.90;99.90
7648;DHT22;3866;48.020;11.720;2022-11-20T00:53:24;4.90;99.90
7648;DHT22;3866;48.020;11.720;2022-11-20T00:55:54;4.80;99.90
7648;DHT22;3866;48.020;11.720;2022-11-20T00:58:23;4.90;99.90
7648;DHT22;3866;48.020;11.720;2022-11-20T01:00:51;4.90;99.90
7648;DHT22;3866;48.020;11.720;2022-11-20T01:03:20;5.00;99.90
7648;DHT22;3866;48.020;11.720;2022-11-20T01:05:48;5.00;99.90
7648;DHT22;3866;48.020;11.720;2022-11-20T01:08:16;5.00;99.90
7648;DHT22;3866;48.020;11.720;2022-11-20T01:10:44;5.00;99.90
7648;DHT22;3866;48.020;11.720;2022-11-20T01:13:12;5.00;99.90
7648;DHT22;3866;48.020;11.720;2022-11-20T01:16:02;5.00;99.90
7648;DHT22;3866;48.020;11.720;2022-11-20T01:18:32;5.10;99.90
7648;DHT22;3866;48.020;11.720;2022-11-20T01:21:05;5.10;99.90
7648;DHT22;3866;48.020;11.720;2022-11-20T01:23:35;5.10;99.90
7648;DHT22;3866;48.020;11.720;2022-11-20T01:26:05;5.10;99.90
7648;DHT22;3866;48.020;11.720;2022-11-20T01:28:34;5.10;99.90
7648;DHT22;3866;48.020;11.720;2022-11-20T01:31:10;5.20;99.90
7648;DHT22;3866;48.020;11.720;2022-11-20T01:33:40;5.10;99.90
7648;DHT22;3866;48.020;11.720;2022-11-20T01:36:09;5.10;99.90
7648;DHT22;3866;48.020;11.720;2022-11-20T01:38:38;5.20;99.90
7648;DHT22;3866;48.020;11.720;2022-11-20T01:41:10;5.20;99.90
7648;DHT22;3866;48.020;11.720;2022-11-20T01:43:58;5.20;99.90
7648;DHT22;3866;48.020;11.720;2022-11-20T01:46:26;5.20;99.90
7648;DHT22;3866;48.020;11.720;2022-11-20T01:48:58;5.20;99.90
7648;DHT22;3866;48.020;11.720;2022-11-20T01:51:35;5.30;99.90
7648;DHT22;3866;48.020;11.720;2022-11-20T01:54:06;5.30;99.90
7648;DHT22;3866;48.020;11.720;2022-11-20T01:56:38;5.30;99.90
7648;DHT22;3866;48.020;11.720;2022-11-20T01:59:08;5.30;99.90
7648;DHT22;3866;48.020;11.720;2022-11-20T02:01:36;5.30;99.90
7648;DHT22;3866;48.020;11.720;2022-11-20T02:04:11;5.30;99.90
7648;DHT22;3866;48.020;11.720;2022-11-20T02:06:42;5.30;99.90
7648;DHT22;3866;48.020;11.720;2022-11-20T02:09:11;5.30;99.90
7648;DHT22;3866;48.020;11.720;2022-11-20T02:11:39;5.30;99.90
7648;DHT22;3866;48.020;11.720;2022-11-20T02:14:08;5.30;99.90
7648;DHT22;3866;48.020;11.720;2022-11-20T02:16:37;5.40;99.90
7648;DHT22;3866;48.020;11.720;2022-11-20T02:19:15;5.40;99.90
7648;DHT22;3866;48.020;11.720;2022-11-20T02:21:49;5.40;99.90
7648;DHT22;3866;48.020;11.720;2022-11-20T02:24:22;5.30;99.90
7648;DHT22;3866;48.020;11.720;2022-11-20T02:26:53;5.30;99.90
7648;DHT22;3866;48.020;11.720;2022-11-20T02:29:24;5.30;99.90
7648;DHT22;3866;48.020;11.720;2022-11-20T02:31:55;5.30;99.90
7648;DHT22;3866;48.020;11.720;2022-11-20T02:34:24;5.30;99.90
7648;DHT22;3866;48.020;11.720;2022-11-20T02:36:53;5.30;99.90
7648;DHT22;3866;48.020;11.720;2022-11-20T02:39:25;5.30;99.90
7648;DHT22;3866;48.020;11.720;2022-11-20T02:41:55;5.30;99.90
7648;DHT22;3866;48.020;11.720;2022-11-20T02:44:24;5.30;99.90
7648;DHT22;3866;48.020;11.720;2022-11-20T02:46:51;5.30;99.90
7648;DHT22;3866;48.020;11.720;2022-11-20T02:49:19;5.30;99.90
7648;DHT22;3866;48.020;11.720;2022-11-20T02:51:47;5.30;99.90
7648;DHT22;3866;48.020;11.720;2022-11-20T02:54:15;5.30;99.90
7648;DHT22;3866;48.020;11.720;2022-11-20T02:56:45;5.30;99.90
7648;DHT22;3866;48.020;11.720;2022-11-20T02:59:13;5.30;99.90
7648;DHT22;3866;48.020;11.720;2022-11-20T03:01:41;5.20;99.90
7648;DHT22;3866;48.020;11.720;2022-11-20T03:04:10;5.20;99.90
7648;DHT22;3866;48.020;11.720;2022-11-20T03:06:37;5.20;99.90
7648;DHT22;3866;48.020;11.720;2022-11-20T03:09:05;5.20;99.90
7648;DHT22;3866;48.020;11.720;2022-11-20T03:11:34;5.10;99.90
7648;DHT22;3866;48.020;11.720;2022-11-20T03:14:04;5.10;99.90
7648;DHT22;3866;48.020;11.720;2022-11-20T03:16:32;5.10;99.90
7648;DHT22;3866;48.020;11.720;2022-11-20T03:19:01;5.10;99.90
7648;DHT22;3866;48.020;11.720;2022-11-20T03:21:29;5.10;99.90
7648;DHT22;3866;48.020;11.720;2022-11-20T03:23:57;5.10;99.90
7648;DHT22;3866;48.020;11.720;2022-11-20T03:26:26;5.10;99.90
7648;DHT22;3866;48.020;11.720;2022-11-20T03:28:55;5.10;99.90
7648;DHT22;3866;48.020;11.720;2022-11-20T03:31:30;5.10;99.90
7648;DHT22;3866;48.020;11.720;2022-11-20T03:33:59;5.00;99.90
7648;DHT22;3866;48.020;11.720;2022-11-20T03:36:27;5.00;99.90
7648;DHT22;3866;48.020;11.720;2022-11-20T03:38:56;5.00;99.90
7648;DHT22;3866;48.020;11.720;2022-11-20T03:41:26;5.00;99.90
7648;DHT22;3866;48.020;11.720;2022-11-20T03:43:57;5.00;99.90
7648;DHT22;3866;48.020;11.720;2022-11-20T03:46:28;4.90;99.90
7648;DHT22;3866;48.020;11.720;2022-11-20T03:48:57;5.00;99.90
7648;DHT22;3866;48.020;11.720;2022-11-20T03:51:26;5.00;99.90
7648;DHT22;3866;48.020;11.720;2022-11-20T03:53:56;5.00;99.90
7648;DHT22;3866;48.020;11.720;2022-11-20T03:56:25;5.00;99.90
7648;DHT22;3866;48.020;11.720;2022-11-20T03:58:54;5.00;99.90
7648;DHT22;3866;48.020;11.720;2022-11-20T04:01:25;5.10;99.90
7648;DHT22;3866;48.020;11.720;2022-11-20T04:03:56;5.00;99.90
7648;DHT22;3866;48.020;11.720;2022-11-20T04:06:26;5.00;99.90
7648;DHT22;3866;48.020;11.720;2022-11-20T04:08:55;4.90;99.90
7648;DHT22;3866;48.020;11.720;2022-11-20T04:11:25;4.90;99.90
7648;DHT22;3866;48.020;11.720;2022-11-20T04:13:55;4.90;99.90
7648;DHT22;3866;48.020;11.720;2022-11-20T04:16:28;4.80;99.90
7648;DHT22;3866;48.020;11.720;2022-11-20T04:18:59;5.00;99.90
7648;DHT22;3866;48.020;11.720;2022-11-20T04:21:30;5.00;99.90
7648;DHT22;3866;48.020;11.720;2022-11-20T04:23:57;5.10;99.90
7648;DHT22;3866;48.020;11.720;2022-11-20T04:26:28;5.00;99.90
7648;DHT22;3866;48.020;11.720;2022-11-20T04:28:57;5.00;99.90
7648;DHT22;3866;48.020;11.720;2022-11-20T04:31:30;5.00;99.90
7648;DHT22;3866;48.020;11.720;2022-11-20T04:34:01;5.00;99.90
7648;DHT22;3866;48.020;11.720;2022-11-20T04:36:29;5.00;99.90
7648;DHT22;3866;48.020;11.720;2022-11-20T04:38:59;5.00;99.90
7648;DHT22;3866;48.020;11.720;2022-11-20T04:41:29;5.10;99.90
7648;DHT22;3866;48.020;11.720;2022-11-20T04:43:59;5.00;99.90
7648;DHT22;3866;48.020;11.720;2022-11-20T04:46:31;5.10;99.90
7648;DHT22;3866;48.020;11.720;2022-11-20T04:49:00;5.10;99.90
7648;DHT22;3866;48.020;11.720;2022-11-20T04:51:28;5.00;99.90
7648;DHT22;3866;48.020;11.720;2022-11-20T04:53:57;5.00;99.90
7648;DHT22;3866;48.020;11.720;2022-11-20T04:56:25;5.00;99.90
7648;DHT22;3866;48.020;11.720;2022-11-20T04:58:53;5.00;99.90
7648;DHT22;3866;48.020;11.720;2022-11-20T05:01:22;5.00;99.90
7648;DHT22;3866;48.020;11.720;2022-11-20T05:03:51;5.00;99.90
7648;DHT22;3866;48.020;11.720;2022-11-20T05:06:22;5.10;99.90
7648;DHT22;3866;48.020;11.720;2022-11-20T05:08:54;5.10;99.90
7648;DHT22;3866;48.020;11.720;2022-11-20T05:11:22;5.10;99.90
7648;DHT22;3866;48.020;11.720;2022-11-20T05:13:50;5.10;99.90
7648;DHT22;3866;48.020;11.720;2022-11-20T05:16:20;5.10;99.90
7648;DHT22;3866;48.020;11.720;2022-11-20T05:18:48;5.10;99.90
7648;DHT22;3866;48.020;11.720;2022-11-20T05:21:17;5.10;99.90
7648;DHT22;3866;48.020;11.720;2022-11-20T05:23:48;5.10;99.90
7648;DHT22;3866;48.020;11.720;2022-11-20T05:26:16;5.10;99.90
7648;DHT22;3866;48.020;11.720;2022-11-20T05:28:45;5.10;99.90
7648;DHT22;3866;48.020;11.720;2022-11-20T05:31:14;5.10;99.90
7648;DHT22;3866;48.020;11.720;2022-11-20T05:33:42;5.10;99.90
7648;DHT22;3866;48.020;11.720;2022-11-20T05:36:10;5.10;99.90
7648;DHT22;3866;48.020;11.720;2022-11-20T05:38:37;5.00;99.90
7648;DHT22;3866;48.020;11.720;2022-11-20T05:41:07;5.10;99.90
7648;DHT22;3866;48.020;11.720;2022-11-20T05:43:34;5.00;99.90
7648;DHT22;3866;48.020;11.720;2022-11-20T05:46:02;5.00;99.90
7648;DHT22;3866;48.020;11.720;2022-11-20T05:48:29;5.00;99.90
7648;DHT22;3866;48.020;11.720;2022-11-20T05:50:57;5.00;99.90
7648;DHT22;3866;48.020;11.720;2022-11-20T05:53:24;5.00;99.90
7648;DHT22;3866;48.020;11.720;2022-11-20T05:55:58;5.10;99.90
7648;DHT22;3866;48.020;11.720;2022-11-20T05:58:27;5.10;99.90
7648;DHT22;3866;48.020;11.720;2022-11-20T06:00:55;5.00;99.90
7648;DHT22;3866;48.020;11.720;2022-11-20T06:03:29;5.00;99.90
7648;DHT22;3866;48.020;11.720;2022-11-20T06:05:55;5.00;99.90
7648;DHT22;3866;48.020;11.720;2022-11-20T06:08:22;5.00;99.90
7648;DHT22;3866;48.020;11.720;2022-11-20T06:10:49;5.00;99.90
7648;DHT22;3866;48.020;11.720;2022-11-20T06:13:16;5.00;99.90
7648;DHT22;3866;48.020;11.720;2022-11-20T06:15:52;5.00;99.90
7648;DHT22;3866;48.020;11.720;2022-11-20T06:18:23;5.00;99.90
7648;DHT22;3866;48.020;11.720;2022-11-20T06:20:59;5.00;99.90
7648;DHT22;3866;48.020;11.720;2022-11-20T06:23:28;4.90;99.90
7648;DHT22;3866;48.020;11.720;2022-11-20T06:25:55;5.00;99.90
7648;DHT22;3866;48.020;11.720;2022-11-20T06:28:22;4.90;99.90
7648;DHT22;3866;48.020;11.720;2022-11-20T06:30:50;4.90;99.90
7648;DHT22;3866;48.020;11.720;2022-11-20T06:33:17;4.90;99.90
7648;DHT22;3866;48.020;11.720;2022-11-20T06:35:44;4.80;99.90
7648;DHT22;3866;48.020;11.720;2022-11-20T06:38:10;4.80;99.90
7648;DHT22;3866;48.020;11.720;2022-11-20T06:40:40;4.70;99.90
7648;DHT22;3866;48.020;11.720;2022-11-20T06:43:07;4.70;99.90
7648;DHT22;3866;48.020;11.720;2022-11-20T06:45:34;4.70;99.90
7648;DHT22;3866;48.020;11.720;2022-11-20T06:48:03;4.60;99.90
7648;DHT22;3866;48.020;11.720;2022-11-20T06:50:30;4.60;99.90
7648;DHT22;3866;48.020;11.720;2022-11-20T06:53:00;4.50;99.90
7648;DHT22;3866;48.020;11.720;2022-11-20T06:55:27;4.50;99.90
7648;DHT22;3866;48.020;11.720;2022-11-20T06:57:54;4.50;99.90
7648;DHT22;3866;48.020;11.720;2022-11-20T07:00:21;4.50;99.90
7648;DHT22;3866;48.020;11.720;2022-11-20T07:02:48;4.50;99.90
7648;DHT22;3866;48.020;11.720;2022-11-20T07:05:17;4.50;99.90
7648;DHT22;3866;48.020;11.720;2022-11-20T07:07:43;4.50;99.90
7648;DHT22;3866;48.020;11.720;2022-11-20T07:10:11;4.60;99.90
7648;DHT22;3866;48.020;11.720;2022-11-20T07:12:38;4.50;99.90
7648;DHT22;3866;48.020;11.720;2022-11-20T07:15:06;4.60;99.90
7648;DHT22;3866;48.020;11.720;2022-11-20T07:17:33;4.60;99.90
7648;DHT22;3866;48.020;11.720;2022-11-20T07:20:00;4.60;99.90
7648;DHT22;3866;48.020;11.720;2022-11-20T07:22:28;4.70;99.90
7648;DHT22;3866;48.020;11.720;2022-11-20T07:24:55;4.70;99.90
7648;DHT22;3866;48.020;11.720;2022-11-20T07:27:22;4.70;99.90
7648;DHT22;3866;48.020;11.720;2022-11-20T07:29:48;4.80;99.90
7648;DHT22;3866;48.020;11.720;2022-11-20T07:32:15;5.00;99.90
7648;DHT22;3866;48.020;11.720;2022-11-20T07:34:42;5.30;99.90
7648;DHT22;3866;48.020;11.720;2022-11-20T07:37:09;5.70;99.90
7648;DHT22;3866;48.020;11.720;2022-11-20T07:39:37;6.10;99.90
7648;DHT22;3866;48.020;11.720;2022-11-20T07:42:05;6.10;99.90
7648;DHT22;3866;48.020;11.720;2022-11-20T07:44:32;6.40;99.90
7648;DHT22;3866;48.020;11.720;2022-11-20T07:46:59;6.70;99.90
7648;DHT22;3866;48.020;11.720;2022-11-20T07:49:26;7.00;99.90
7648;DHT22;3866;48.020;11.720;2022-11-20T07:51:53;7.00;99.90
7648;DHT22;3866;48.020;11.720;2022-11-20T07:54:20;7.20;99.90
7648;DHT22;3866;48.020;11.720;2022-11-20T07:56:49;6.90;99.90
7648;DHT22;3866;48.020;11.720;2022-11-20T07:59:16;6.70;99.90
7648;DHT22;3866;48.020;11.720;2022-11-20T08:01:43;6.60;99.90
7648;DHT22;3866;48.020;11.720;2022-11-20T08:04:10;6.30;99.90
7648;DHT22;3866;48.020;11.720;2022-11-20T08:06:37;6.30;99.90
7648;DHT22;3866;48.020;11.720;2022-11-20T08:09:03;6.30;99.90
7648;DHT22;3866;48.020;11.720;2022-11-20T08:11:30;6.10;99.90
7648;DHT22;3866;48.020;11.720;2022-11-20T08:14:16;6.00;99.90
7648;DHT22;3866;48.020;11.720;2022-11-20T08:16:44;6.00;99.90
7648;DHT22;3866;48.020;11.720;2022-11-20T08:19:11;6.00;99.90
7648;DHT22;3866;48.020;11.720;2022-11-20T08:21:38;6.00;99.90
7648;DHT22;3866;48.020;11.720;2022-11-20T08:24:06;6.00;99.90
7648;DHT22;3866;48.020;11.720;2022-11-20T08:26:34;5.90;99.90
7648;DHT22;3866;48.020;11.720;2022-11-20T08:29:01;5.80;99.90
7648;DHT22;3866;48.020;11.720;2022-11-20T08:31:30;5.80;99.90
7648;DHT22;3866;48.020;11.720;2022-11-20T08:33:56;5.80;99.90
7648;DHT22;3866;48.020;11.720;2022-11-20T08:36:24;5.80;99.90
7648;DHT22;3866;48.020;11.720;2022-11-20T08:38:52;5.80;99.90
7648;DHT22;3866;48.020;11.720;2022-11-20T08:41:20;5.80;99.90
7648;DHT22;3866;48.020;11.720;2022-11-20T08:43:52;5.80;99.90
7648;DHT22;3866;48.020;11.720;2022-11-20T08:46:19;5.80;99.90
7648;DHT22;3866;48.020;11.720;2022-11-20T08:48:47;5.80;99.90
7648;DHT22;3866;48.020;11.720;2022-11-20T08:51:14;5.90;99.90
7648;DHT22;3866;48.020;11.720;2022-11-20T08:53:41;5.90;99.90
7648;DHT22;3866;48.020;11.720;2022-11-20T08:56:08;5.90;99.90
7648;DHT22;3866;48.020;11.720;2022-11-20T08:58:36;5.90;99.90
7648;DHT22;3866;48.020;11.720;2022-11-20T09:01:04;6.00;99.90
7648;DHT22;3866;48.020;11.720;2022-11-20T09:03:31;6.00;99.90
7648;DHT22;3866;48.020;11.720;2022-11-20T09:06:00;6.00;99.90
7648;DHT22;3866;48.020;11.720;2022-11-20T09:08:28;6.10;99.90
7648;DHT22;3866;48.020;11.720;2022-11-20T09:10:56;6.10;99.90
7648;DHT22;3866;48.020;11.720;2022-11-20T09:13:25;6.10;99.90
7648;DHT22;3866;48.020;11.720;2022-11-20T09:15:56;6.10;99.90
7648;DHT22;3866;48.020;11.720;2022-11-20T09:18:23;6.20;99.90
7648;DHT22;3866;48.020;11.720;2022-11-20T09:20:50;6.20;99.90
7648;DHT22;3866;48.020;11.720;2022-11-20T09:23:19;6.20;99.90
7648;DHT22;3866;48.020;11.720;2022-11-20T09:25:45;6.20;99.90
7648;DHT22;3866;48.020;11.720;2022-11-20T09:28:12;6.20;99.90
7648;DHT22;3866;48.020;11.720;2022-11-20T09:30:39;6.30;99.90
7648;DHT22;3866;48.020;11.720;2022-11-20T09:33:06;6.30;99.90
7648;DHT22;3866;48.020;11.720;2022-11-20T09:35:33;6.30;99.90
7648;DHT22;3866;48.020;11.720;2022-11-20T09:38:05;6.40;99.90
7648;DHT22;3866;48.020;11.720;2022-11-20T09:40:35;6.40;99.90
7648;DHT22;3866;48.020;11.720;2022-11-20T09:43:07;6.50;99.90
7648;DHT22;3866;48.020;11.720;2022-11-20T09:45:56;6.50;99.90
7648;DHT22;3866;48.020;11.720;2022-11-20T09:48:45;6.50;99.90
7648;DHT22;3866;48.020;11.720;2022-11-20T09:51:26;6.50;99.90
7648;DHT22;3866;48.020;11.720;2022-11-20T09:54:08;6.60;99.90
7648;DHT22;3866;48.020;11.720;2022-11-20T09:56:40;6.70;99.90
7648;DHT22;3866;48.020;11.720;2022-11-20T09:59:15;6.70;99.90
7648;DHT22;3866;48.020;11.720;2022-11-20T10:01:46;6.80;99.90
7648;DHT22;3866;48.020;11.720;2022-11-20T10:04:15;6.80;99.90
7648;DHT22;3866;48.020;11.720;2022-11-20T10:06:49;6.90;99.90
7648;DHT22;3866;48.020;11.720;2022-11-20T10:09:25;6.90;99.90
7648;DHT22;3866;48.020;11.720;2022-11-20T10:12:09;7.00;99.90
7648;DHT22;3866;48.020;11.720;2022-11-20T10:14:46;7.10;99.90
7648;DHT22;3866;48.020;11.720;2022-11-20T10:17:22;7.20;99.90
7648;DHT22;3866;48.020;11.720;2022-11-20T10:20:12;7.30;99.90
7648;DHT22;3866;48.020;11.720;2022-11-20T10:22:52;7.40;99.90
7648;DHT22;3866;48.020;11.720;2022-11-20T10:25:34;7.50;99.90
7648;DHT22;3866;48.020;11.720;2022-11-20T10:28:26;7.50;99.90
7648;DHT22;3866;48.020;11.720;2022-11-20T10:31:00;7.70;99.90
7648;DHT22;3866;48.020;11.720;2022-11-20T10:33:33;7.60;99.90
7648;DHT22;3866;48.020;11.720;2022-11-20T10:36:07;7.70;99.90
7648;DHT22;3866;48.020;11.720;2022-11-20T10:38:40;7.70;99.90
7648;DHT22;3866;48.020;11.720;2022-11-20T10:41:15;7.80;99.90
7648;DHT22;3866;48.020;11.720;2022-11-20T10:43:59;7.80;99.90
7648;DHT22;3866;48.020;11.720;2022-11-20T10:46:35;8.00;99.90
7648;DHT22;3866;48.020;11.720;2022-11-20T10:49:11;8.30;99.90
7648;DHT22;3866;48.020;11.720;2022-11-20T10:51:47;8.50;99.90
7648;DHT22;3866;48.020;11.720;2022-11-20T10:54:22;8.30;99.90
7648;DHT22;3866;48.020;11.720;2022-11-20T10:56:51;8.30;99.90
7648;DHT22;3866;48.020;11.720;2022-11-20T10:59:37;8.50;99.90
7648;DHT22;3866;48.020;11.720;2022-11-20T11:02:18;8.70;99.90
7648;DHT22;3866;48.020;11.720;2022-11-20T11:04:46;8.70;99.90
7648;DHT22;3866;48.020;11.720;2022-11-20T11:07:16;8.50;99.90
7648;DHT22;3866;48.020;11.720;2022-11-20T11:09:47;8.60;99.90
7648;DHT22;3866;48.020;11.720;2022-11-20T11:12:14;8.60;99.90
7648;DHT22;3866;48.020;11.720;2022-11-20T11:14:47;9.00;99.90
7648;DHT22;3866;48.020;11.720;2022-11-20T11:17:24;8.90;99.90
7648;DHT22;3866;48.020;11.720;2022-11-20T11:20:14;8.80;99.90
7648;DHT22;3866;48.020;11.720;2022-11-20T11:22:44;8.70;99.90
7648;DHT22;3866;48.020;11.720;2022-11-20T11:25:23;8.60;99.90
7648;DHT22;3866;48.020;11.720;2022-11-20T11:27:51;8.30;99.90
7648;DHT22;3866;48.020;11.720;2022-11-20T11:30:22;8.20;99.90
7648;DHT22;3866;48.020;11.720;2022-11-20T11:32:50;8.10;99.90
7648;DHT22;3866;48.020;11.720;2022-11-20T11:35:24;8.20;99.90
7648;DHT22;3866;48.020;11.720;2022-11-20T11:37:53;8.00;99.90
7648;DHT22;3866;48.020;11.720;2022-11-20T11:40:21;8.00;99.90
7648;DHT22;3866;48.020;11.720;2022-11-20T11:42:54;7.80;99.90
7648;DHT22;3866;48.020;11.720;2022-11-20T11:45:24;7.80;99.90
7648;DHT22;3866;48.020;11.720;2022-11-20T11:47:53;7.80;99.90
7648;DHT22;3866;48.020;11.720;2022-11-20T11:50:22;7.80;99.90
7648;DHT22;3866;48.020;11.720;2022-11-20T11:52:58;7.80;99.90
7648;DHT22;3866;48.020;11.720;2022-11-20T11:55:31;7.80;99.90
7648;DHT22;3866;48.020;11.720;2022-11-20T11:58:22;7.80;99.90
7648;DHT22;3866;48.020;11.720;2022-11-20T12:00:57;7.90;99.90
7648;DHT22;3866;48.020;11.720;2022-11-20T12:03:29;8.10;99.90
7648;DHT22;3866;48.020;11.720;2022-11-20T12:06:03;8.50;99.90
7648;DHT22;3866;48.020;11.720;2022-11-20T12:08:40;8.60;99.90
7648;DHT22;3866;48.020;11.720;2022-11-20T12:11:14;8.50;99.90
7648;DHT22;3866;48.020;11.720;2022-11-20T12:13:48;8.50;99.90
7648;DHT22;3866;48.020;11.720;2022-11-20T12:16:19;8.50;99.90
7648;DHT22;3866;48.020;11.720;2022-11-20T12:18:48;8.50;99.90
7648;DHT22;3866;48.020;11.720;2022-11-20T12:21:20;8.40;99.90
7648;DHT22;3866;48.020;11.720;2022-11-20T12:24:13;8.50;99.90
7648;DHT22;3866;48.020;11.720;2022-11-20T12:26:54;8.40;99.90
7648;DHT22;3866;48.020;11.720;2022-11-20T12:29:33;8.40;99.90
7648;DHT22;3866;48.020;11.720;2022-11-20T12:32:29;8.40;99.90
7648;DHT22;3866;48.020;11.720;2022-11-20T12:35:13;8.40;99.90
7648;DHT22;3866;48.020;11.720;2022-11-20T12:37:49;8.40;99.90
7648;DHT22;3866;48.020;11.720;2022-11-20T12:40:30;8.30;99.90
7648;DHT22;3866;48.020;11.720;2022-11-20T12:43:06;8.20;99.90
7648;DHT22;3866;48.020;11.720;2022-11-20T12:46:22;8.20;99.90
7648;DHT22;3866;48.020;11.720;2022-11-20T12:51:53;8.00;99.90
7648;DHT22;3866;48.020;11.720;2022-11-20T12:54:38;7.80;99.90
7648;DHT22;3866;48.020;11.720;2022-11-20T12:57:13;7.70;99.90
7648;DHT22;3866;48.020;11.720;2022-11-20T12:59:58;7.70;99.90
7648;DHT22;3866;48.020;11.720;2022-11-20T13:02:36;7.50;99.90
7648;DHT22;3866;48.020;11.720;2022-11-20T13:05:19;7.30;99.90
7648;DHT22;3866;48.020;11.720;2022-11-20T13:07:50;7.00;99.90
7648;DHT22;3866;48.020;11.720;2022-11-20T13:10:26;6.80;99.90
7648;DHT22;3866;48.020;11.720;2022-11-20T13:13:01;6.70;99.90
7648;DHT22;3866;48.020;11.720;2022-11-20T13:15:42;6.60;99.90
7648;DHT22;3866;48.020;11.720;2022-11-20T13:18:12;6.50;99.90
7648;DHT22;3866;48.020;11.720;2022-11-20T13:20:46;6.40;99.90
7648;DHT22;3866;48.020;11.720;2022-11-20T13:23:23;6.40;99.90
7648;DHT22;3866;48.020;11.720;2022-11-20T13:26:03;6.30;99.90
7648;DHT22;3866;48.020;11.720;2022-11-20T13:28:35;6.40;99.90
7648;DHT22;3866;48.020;11.720;2022-11-20T13:31:04;6.50;99.90
7648;DHT22;3866;48.020;11.720;2022-11-20T13:33:34;6.40;99.90
7648;DHT22;3866;48.020;11.720;2022-11-20T13:36:06;6.30;99.90
7648;DHT22;3866;48.020;11.720;2022-11-20T13:38:43;6.30;99.90
7648;DHT22;3866;48.020;11.720;2022-11-20T13:41:10;6.30;99.90
7648;DHT22;3866;48.020;11.720;2022-11-20T13:43:58;6.30;99.90
7648;DHT22;3866;48.020;11.720;2022-11-20T13:46:39;6.30;99.90
7648;DHT22;3866;48.020;11.720;2022-11-20T13:49:14;6.30;99.90
7648;DHT22;3866;48.020;11.720;2022-11-20T13:51:46;6.20;99.90
7648;DHT22;3866;48.020;11.720;2022-11-20T13:57:25;6.20;99.90
7648;DHT22;3866;48.020;11.720;2022-11-20T14:00:07;6.20;99.90
7648;DHT22;3866;48.020;11.720;2022-11-20T14:02:37;6.20;99.90
7648;DHT22;3866;48.020;11.720;2022-11-20T14:05:05;6.30;99.90
7648;DHT22;3866;48.020;11.720;2022-11-20T14:07:43;6.30;99.90
7648;DHT22;3866;48.020;11.720;2022-11-20T14:10:19;6.30;99.90
7648;DHT22;3866;48.020;11.720;2022-11-20T14:12:47;6.30;99.90
7648;DHT22;3866;48.020;11.720;2022-11-20T14:15:25;6.30;99.90
7648;DHT22;3866;48.020;11.720;2022-11-20T14:17:53;6.30;99.90
7648;DHT22;3866;48.020;11.720;2022-11-20T14:20:24;6.30;99.90
7648;DHT22;3866;48.020;11.720;2022-11-20T14:22:55;6.30;99.90
7648;DHT22;3866;48.020;11.720;2022-11-20T14:25:23;6.30;99.90
7648;DHT22;3866;48.020;11.720;2022-11-20T14:27:55;6.30;99.90
7648;DHT22;3866;48.020;11.720;2022-11-20T14:30:24;6.40;99.90
7648;DHT22;3866;48.020;11.720;2022-11-20T14:32:54;6.40;99.90
7648;DHT22;3866;48.020;11.720;2022-11-20T14:35:24;6.40;99.90
7648;DHT22;3866;48.020;11.720;2022-11-20T14:37:53;6.40;99.90
7648;DHT22;3866;48.020;11.720;2022-11-20T14:40:28;6.40;99.90
7648;DHT22;3866;48.020;11.720;2022-11-20T14:42:57;6.40;99.90
7648;DHT22;3866;48.020;11.720;2022-11-20T14:45:25;6.50;99.90
7648;DHT22;3866;48.020;11.720;2022-11-20T14:47:54;6.50;99.90
7648;DHT22;3866;48.020;11.720;2022-11-20T14:50:25;6.40;99.90
7648;DHT22;3866;48.020;11.720;2022-11-20T14:52:57;6.50;99.90
7648;DHT22;3866;48.020;11.720;2022-11-20T14:55:30;6.40;99.90
7648;DHT22;3866;48.020;11.720;2022-11-20T14:57:59;6.40;99.90
7648;DHT22;3866;48.020;11.720;2022-11-20T15:00:27;6.40;99.90
7648;DHT22;3866;48.020;11.720;2022-11-20T15:02:56;6.40;99.90
7648;DHT22;3866;48.020;11.720;2022-11-20T15:05:26;6.40;99.90
7648;DHT22;3866;48.020;11.720;2022-11-20T15:08:07;6.50;99.90
7648;DHT22;3866;48.020;11.720;2022-11-20T15:10:37;6.50;99.90
7648;DHT22;3866;48.020;11.720;2022-11-20T15:13:10;6.40;99.90
7648;DHT22;3866;48.020;11.720;2022-11-20T15:15:44;6.40;99.90
7648;DHT22;3866;48.020;11.720;2022-11-20T15:18:16;6.40;99.90
7648;DHT22;3866;48.020;11.720;2022-11-20T15:20:43;6.40;99.90
7648;DHT22;3866;48.020;11.720;2022-11-20T15:23:13;6.40;99.90
7648;DHT22;3866;48.020;11.720;2022-11-20T15:25:41;6.40;99.90
7648;DHT22;3866;48.020;11.720;2022-11-20T15:28:16;6.30;99.90
7648;DHT22;3866;48.020;11.720;2022-11-20T15:30:46;6.30;99.90
7648;DHT22;3866;48.020;11.720;2022-11-20T15:33:14;6.30;99.90
7648;DHT22;3866;48.020;11.720;2022-11-20T15:35:41;6.30;99.90
7648;DHT22;3866;48.020;11.720;2022-11-20T15:38:08;6.20;99.90
7648;DHT22;3866;48.020;11.720;2022-11-20T15:40:37;6.20;99.90
7648;DHT22;3866;48.020;11.720;2022-11-20T15:43:05;6.20;99.90
7648;DHT22;3866;48.020;11.720;2022-11-20T15:45:38;6.20;99.90
7648;DHT22;3866;48.020;11.720;2022-11-20T15:48:10;6.10;99.90
7648;DHT22;3866;48.020;11.720;2022-11-20T15:50:43;6.20;99.90
7648;DHT22;3866;48.020;11.720;2022-11-20T15:53:12;6.20;99.90
7648;DHT22;3866;48.020;11.720;2022-11-20T15:55:40;6.20;99.90
7648;DHT22;3866;48.020;11.720;2022-11-20T15:58:07;6.20;99.90
7648;DHT22;3866;48.020;11.720;2022-11-20T16:00:34;6.20;99.90
7648;DHT22;3866;48.020;11.720;2022-11-20T16:03:02;6.20;99.90
7648;DHT22;3866;48.020;11.720;2022-11-20T16:05:29;6.20;99.90
7648;DHT22;3866;48.020;11.720;2022-11-20T16:07:57;6.20;99.90
7648;DHT22;3866;48.020;11.720;2022-11-20T16:10:25;6.20;99.90
7648;DHT22;3866;48.020;11.720;2022-11-20T16:12:55;6.10;99.90
7648;DHT22;3866;48.020;11.720;2022-11-20T16:15:39;6.10;99.90
7648;DHT22;3866;48.020;11.720;2022-11-20T16:18:13;6.20;99.90
7648;DHT22;3866;48.020;11.720;2022-11-20T16:20:40;6.10;99.90
7648;DHT22;3866;48.020;11.720;2022-11-20T16:23:07;6.10;99.90
7648;DHT22;3866;48.020;11.720;2022-11-20T16:25:35;6.10;99.90
7648;DHT22;3866;48.020;11.720;2022-11-20T16:28:05;6.20;99.90
7648;DHT22;3866;48.020;11.720;2022-11-20T16:30:34;6.20;99.90
7648;DHT22;3866;48.020;11.720;2022-11-20T16:33:03;6.20;99.90